createdAt,value
2024-02-22T00:02:09.663Z,7.82
2024-02-22T00:04:37.269Z,8.07
2024-02-22T00:07:04.670Z,7.63
2024-02-22T00:09:32.937Z,8.07
2024-02-22T00:12:00.490Z,8.00
2024-02-22T00:14:28.465Z,7.63
2024-02-22T00:16:55.748Z,7.22
2024-02-22T00:19:23.195Z,8.13
2024-02-22T00:21:50.544Z,9.13
2024-02-22T00:24:17.875Z,8.73
2024-02-22T00:26:46.443Z,7.40
2024-02-22T00:29:13.720Z,7.15
2024-02-22T00:31:40.979Z,7.93
2024-02-22T00:34:08.232Z,8.95
2024-02-22T00:36:44.439Z,7.80
2024-02-22T00:39:11.709Z,7.75
2024-02-22T00:41:39.765Z,7.72
2024-02-22T00:44:08.514Z,7.60
2024-02-22T00:46:36.330Z,8.40
2024-02-22T00:49:03.660Z,7.82
2024-02-22T00:51:30.952Z,7.80
2024-02-22T00:53:58.173Z,7.38
2024-02-22T00:56:25.308Z,7.50
2024-02-22T00:58:52.808Z,7.18
2024-02-22T01:01:20.171Z,7.10
2024-02-22T01:03:47.412Z,6.35
2024-02-22T01:06:16.812Z,6.03
2024-02-22T01:08:44.078Z,6.15
2024-02-22T01:11:11.501Z,6.18
2024-02-22T01:13:38.793Z,6.13
2024-02-22T01:16:07.184Z,6.53
2024-02-22T01:18:35.260Z,6.60
2024-02-22T01:21:02.551Z,5.70
2024-02-22T01:23:29.755Z,5.70
2024-02-22T01:25:58.739Z,5.85
2024-02-22T01:28:26.602Z,6.07
2024-02-22T01:30:53.778Z,6.38
2024-02-22T01:33:21.035Z,6.03
2024-02-22T01:35:48.252Z,5.55
2024-02-22T01:38:15.529Z,6.60
2024-02-22T01:40:42.984Z,5.70
2024-02-22T01:43:10.323Z,5.50
2024-02-22T01:45:37.930Z,6.50
2024-02-22T01:48:06.096Z,6.70
2024-02-22T01:50:33.665Z,6.57
2024-02-22T01:53:01.566Z,6.15
2024-02-22T01:55:29.348Z,6.40
2024-02-22T01:57:56.613Z,6.85
2024-02-22T02:00:24.656Z,6.93
2024-02-22T02:02:51.972Z,7.75
2024-02-22T02:05:19.482Z,7.50
2024-02-22T02:07:47.353Z,8.15
2024-02-22T02:10:14.640Z,8.10
2024-02-22T02:12:41.803Z,7.75
2024-02-22T02:15:09.137Z,8.68
2024-02-22T02:17:37.141Z,8.80
2024-02-22T02:20:08.589Z,9.77
2024-02-22T02:22:42.031Z,10.10
2024-02-22T02:25:10.754Z,10.18
2024-02-22T02:27:38.318Z,9.27
2024-02-22T02:30:06.414Z,10.05
2024-02-22T02:32:33.648Z,10.30
2024-02-22T02:35:01.043Z,9.52
2024-02-22T02:37:28.449Z,8.00
2024-02-22T02:39:55.684Z,10.05
2024-02-22T02:42:22.899Z,10.40
2024-02-22T02:44:50.115Z,9.45
2024-02-22T02:47:17.482Z,9.35
2024-02-22T02:49:44.818Z,8.65
2024-02-22T02:52:11.978Z,8.32
2024-02-22T02:54:39.150Z,8.00
2024-02-22T02:57:06.496Z,7.78
2024-02-22T02:59:33.713Z,7.72
2024-02-22T03:02:00.939Z,7.80
2024-02-22T03:04:28.445Z,7.82
2024-02-22T03:06:55.753Z,6.25
2024-02-22T03:09:22.896Z,7.78
2024-02-22T03:11:50.458Z,6.35
2024-02-22T03:14:17.835Z,6.65
2024-02-22T03:16:45.026Z,8.23
2024-02-22T03:19:12.278Z,6.18
2024-02-22T03:21:39.579Z,7.25
2024-02-22T03:24:08.761Z,6.90
2024-02-22T03:26:36.324Z,5.43
2024-02-22T03:29:03.572Z,7.00
2024-02-22T03:31:31.243Z,6.20
2024-02-22T03:33:58.491Z,6.15
2024-02-22T03:36:25.692Z,6.97
2024-02-22T03:38:54.382Z,7.05
2024-02-22T03:43:49.652Z,7.20
2024-02-22T03:46:17.056Z,6.65
2024-02-22T03:48:44.215Z,7.40
2024-02-22T03:51:11.447Z,6.97
2024-02-22T03:53:38.602Z,7.68
2024-02-22T03:56:06.011Z,7.20
2024-02-22T03:58:33.278Z,7.20
2024-02-22T04:01:00.771Z,7.30
2024-02-22T04:03:28.992Z,7.05
2024-02-22T04:05:57.332Z,4.75
2024-02-22T04:08:24.984Z,6.47
2024-02-22T04:10:52.939Z,6.90
2024-02-22T04:13:20.148Z,5.57
2024-02-22T04:15:48.951Z,5.47
2024-02-22T04:20:43.305Z,5.43
2024-02-22T04:23:10.520Z,5.63
2024-02-22T04:25:37.870Z,5.15
2024-02-22T04:28:05.250Z,5.95
2024-02-22T04:30:32.427Z,5.55
2024-02-22T04:32:59.661Z,5.05
2024-02-22T04:35:27.010Z,6.13
2024-02-22T04:37:54.509Z,5.88
2024-02-22T04:40:21.826Z,6.28
2024-02-22T04:42:49.092Z,5.22
2024-02-22T04:45:16.264Z,5.13
2024-02-22T04:47:43.473Z,5.00
2024-02-22T04:50:11.050Z,5.43
2024-02-22T04:52:38.335Z,5.15
2024-02-22T04:55:05.728Z,4.30
2024-02-22T04:57:33.335Z,5.00
2024-02-22T05:00:00.645Z,5.72
2024-02-22T05:02:28.851Z,4.80
2024-02-22T05:04:56.077Z,4.63
2024-02-22T05:07:23.235Z,4.25
2024-02-22T05:09:50.674Z,4.50
2024-02-22T05:12:17.863Z,4.70
2024-02-22T05:14:45.933Z,4.55
2024-02-22T05:17:13.645Z,5.00
2024-02-22T05:19:41.358Z,4.25
2024-02-22T05:22:08.571Z,3.63
2024-02-22T05:24:35.932Z,4.00
2024-02-22T05:27:03.344Z,5.00
2024-02-22T05:29:30.989Z,3.88
2024-02-22T05:31:59.239Z,3.70
2024-02-22T05:34:26.976Z,4.00
2024-02-22T05:36:54.209Z,4.63
2024-02-22T05:39:22.287Z,3.80
2024-02-22T05:41:49.762Z,4.03
2024-02-22T05:44:19.910Z,3.92
2024-02-22T05:46:47.126Z,3.30
2024-02-22T05:49:14.348Z,3.60
2024-02-22T05:51:41.938Z,3.55
2024-02-22T05:54:09.101Z,4.15
2024-02-22T05:56:36.274Z,3.78
2024-02-22T05:59:03.519Z,3.45
2024-02-22T06:01:31.319Z,3.47
2024-02-22T06:03:58.650Z,3.65
2024-02-22T06:06:25.867Z,3.88
2024-02-22T06:08:53.085Z,3.45
2024-02-22T06:11:20.431Z,3.20
2024-02-22T06:13:47.752Z,3.92
2024-02-22T06:16:15.922Z,3.90
2024-02-22T06:18:43.238Z,3.25
2024-02-22T06:21:12.217Z,3.70
2024-02-22T06:23:40.330Z,4.07
2024-02-22T06:26:07.654Z,3.17
2024-02-22T06:28:35.272Z,3.42
2024-02-22T06:31:03.465Z,3.25
2024-02-22T06:33:34.270Z,3.75
2024-02-22T06:36:01.857Z,3.65
2024-02-22T06:38:29.033Z,3.90
2024-02-22T06:40:56.302Z,3.85
2024-02-22T06:43:23.593Z,3.85
2024-02-22T06:45:50.794Z,4.78
2024-02-22T06:48:18.179Z,3.65
2024-02-22T06:50:45.506Z,3.97
2024-02-22T06:53:12.815Z,3.40
2024-02-22T06:55:40.094Z,3.80
2024-02-22T06:58:07.436Z,3.70
2024-02-22T07:00:34.873Z,4.03
2024-02-22T07:03:05.652Z,4.45
2024-02-22T07:05:33.706Z,4.72
2024-02-22T07:08:01.308Z,3.60
2024-02-22T07:10:28.728Z,3.95
2024-02-22T07:12:57.069Z,3.80
2024-02-22T07:15:24.853Z,3.58
2024-02-22T07:17:52.232Z,3.83
2024-02-22T07:20:19.632Z,5.18
2024-02-22T07:22:48.493Z,5.75
2024-02-22T07:25:17.696Z,3.88
2024-02-22T07:27:45.237Z,4.38
2024-02-22T07:30:15.039Z,4.32
2024-02-22T07:32:42.533Z,5.07
2024-02-22T07:35:10.348Z,5.07
2024-02-22T07:37:37.798Z,5.75
2024-02-22T07:40:05.625Z,5.18
2024-02-22T07:42:34.377Z,5.53
2024-02-22T07:45:01.779Z,6.35
2024-02-22T07:47:29.079Z,7.03
2024-02-22T07:49:56.355Z,6.72
2024-02-22T07:52:49.014Z,6.18
2024-02-22T07:55:25.689Z,6.90
2024-02-22T08:01:42.155Z,7.22
2024-02-22T08:04:09.725Z,7.35
2024-02-22T08:06:37.268Z,6.90
2024-02-22T08:09:05.108Z,6.57
2024-02-22T08:11:47.322Z,6.80
2024-02-22T08:17:39.628Z,6.45
2024-02-22T08:20:16.274Z,6.05
2024-02-22T08:22:44.251Z,4.38
2024-02-22T08:25:20.541Z,5.80
2024-02-22T08:27:58.387Z,4.97
2024-02-22T08:30:43.476Z,4.70
2024-02-22T08:37:11.062Z,3.78
2024-02-22T08:39:44.721Z,4.35
2024-02-22T08:42:55.452Z,4.25
2024-02-22T08:45:28.056Z,4.10
2024-02-22T08:47:55.300Z,3.53
2024-02-22T08:50:22.565Z,3.80
2024-02-22T08:52:49.870Z,4.13
2024-02-22T08:55:17.115Z,3.65
2024-02-22T08:57:51.629Z,3.72
2024-02-22T09:00:20.724Z,3.92
2024-02-22T09:02:49.336Z,3.92
2024-02-22T09:05:16.942Z,3.22
2024-02-22T09:07:44.850Z,3.47
2024-02-22T09:10:12.253Z,3.45
2024-02-22T09:12:41.693Z,3.70
2024-02-22T09:15:10.067Z,3.25
2024-02-22T09:17:37.459Z,2.95
2024-02-22T09:20:07.664Z,3.35
2024-02-22T09:22:35.023Z,3.28
2024-02-22T09:25:07.390Z,3.90
2024-02-22T09:27:35.040Z,3.67
2024-02-22T09:30:05.333Z,3.28
2024-02-22T09:32:33.117Z,3.53
2024-02-22T09:35:01.105Z,3.30
2024-02-22T09:37:30.885Z,3.10
2024-02-22T09:39:58.128Z,3.13
2024-02-22T09:42:29.310Z,2.17
2024-02-22T09:44:57.704Z,2.95
2024-02-22T09:47:25.872Z,3.25
2024-02-22T09:49:53.517Z,2.67
2024-02-22T09:52:23.798Z,3.00
2024-02-22T09:54:51.100Z,2.22
2024-02-22T09:57:18.380Z,2.75
2024-02-22T09:59:52.791Z,2.60
2024-02-22T10:02:21.018Z,2.95
2024-02-22T10:04:56.332Z,2.92
2024-02-22T10:07:27.275Z,2.25
2024-02-22T10:09:55.037Z,2.95
2024-02-22T10:12:27.655Z,2.65
2024-02-22T10:14:55.792Z,2.20
2024-02-22T10:17:24.753Z,2.50
2024-02-22T10:19:58.041Z,1.67
2024-02-22T10:22:25.732Z,2.35
2024-02-22T10:24:57.122Z,2.10
2024-02-22T10:27:26.240Z,1.92
2024-02-22T10:29:54.077Z,2.22
2024-02-22T10:32:21.496Z,1.83
2024-02-22T10:34:52.728Z,2.20
2024-02-22T10:37:20.089Z,2.25
2024-02-22T10:39:47.566Z,2.40
2024-02-22T10:42:15.348Z,2.83
2024-02-22T10:44:51.347Z,2.50
2024-02-22T10:47:19.267Z,3.67
2024-02-22T10:49:48.947Z,2.75
2024-02-22T10:52:20.253Z,2.92
2024-02-22T10:54:48.640Z,2.47
2024-02-22T10:57:16.983Z,3.85
2024-02-22T10:59:45.315Z,2.70
2024-02-22T11:02:16.139Z,2.40
2024-02-22T11:04:43.493Z,2.72
2024-02-22T11:07:11.565Z,2.28
2024-02-22T11:09:41.565Z,2.80
2024-02-22T11:12:09.426Z,2.28
2024-02-22T11:14:38.597Z,2.63
2024-02-22T11:17:18.905Z,2.13
2024-02-22T11:19:46.694Z,2.55
2024-02-22T11:22:15.196Z,2.47
2024-02-22T11:24:43.598Z,2.40
2024-02-22T11:27:11.492Z,1.98
2024-02-22T11:29:38.662Z,2.05
2024-02-22T11:32:06.671Z,2.15
2024-02-22T11:34:36.222Z,1.55
2024-02-22T11:37:17.788Z,1.83
2024-02-22T11:39:45.934Z,2.00
2024-02-22T11:42:17.008Z,1.00
2024-02-22T11:44:44.896Z,1.58
2024-02-22T11:47:15.299Z,1.50
2024-02-22T11:49:43.349Z,1.40
2024-02-22T11:52:10.673Z,2.00
2024-02-22T11:54:38.199Z,1.65
2024-02-22T11:57:05.861Z,1.85
2024-02-22T11:59:33.400Z,2.00
2024-02-22T12:02:01.546Z,1.25
2024-02-22T12:04:32.266Z,2.05
2024-02-22T12:06:59.987Z,1.63
2024-02-22T12:09:27.483Z,2.00
2024-02-22T12:11:54.763Z,1.80
2024-02-22T12:14:22.113Z,2.25
2024-02-22T12:16:49.422Z,1.58
2024-02-22T12:19:18.156Z,1.85
2024-02-22T12:21:47.759Z,1.35
2024-02-22T12:24:14.948Z,1.65
2024-02-22T12:26:42.420Z,2.10
2024-02-22T12:29:09.893Z,1.77
2024-02-22T12:31:37.155Z,1.70
2024-02-22T12:34:04.501Z,1.55
2024-02-22T12:36:31.734Z,1.67
2024-02-22T12:39:00.021Z,1.60
2024-02-22T12:41:27.794Z,1.77
2024-02-22T12:43:57.035Z,0.70
2024-02-22T12:46:24.409Z,1.20
2024-02-22T12:48:51.702Z,1.50
2024-02-22T12:51:21.795Z,2.03
2024-02-22T12:53:49.842Z,1.45
2024-02-22T12:56:17.322Z,1.58
2024-02-22T12:58:45.041Z,1.20
2024-02-22T13:01:15.455Z,1.90
2024-02-22T13:03:42.831Z,1.58
2024-02-22T13:06:10.193Z,1.52
2024-02-22T13:08:39.681Z,1.60
2024-02-22T13:11:08.653Z,1.30
2024-02-22T13:13:35.950Z,1.50
2024-02-22T13:16:04.904Z,1.25
2024-02-22T13:18:32.260Z,1.05
2024-02-22T13:20:59.541Z,1.50
2024-02-22T13:23:26.832Z,1.40
2024-02-22T13:25:54.130Z,1.65
2024-02-22T13:28:21.370Z,1.23
2024-02-22T13:30:48.578Z,1.40
2024-02-22T13:33:16.071Z,1.50
2024-02-22T13:35:43.630Z,1.65
2024-02-22T13:38:10.968Z,1.30
2024-02-22T13:40:38.202Z,1.40
2024-02-22T13:43:06.223Z,1.27
2024-02-22T13:45:40.896Z,1.40
2024-02-22T13:48:11.386Z,1.63
2024-02-22T13:50:39.578Z,1.50
2024-02-22T13:53:07.029Z,1.20
2024-02-22T13:55:34.485Z,1.20
2024-02-22T13:58:01.981Z,1.00
2024-02-22T14:00:29.244Z,0.95
2024-02-22T14:02:56.461Z,1.40
2024-02-22T14:05:24.783Z,1.40
2024-02-22T14:07:58.635Z,1.42
2024-02-22T14:10:28.966Z,1.35
2024-02-22T14:12:56.593Z,1.33
2024-02-22T14:15:24.041Z,1.40
2024-02-22T14:17:51.246Z,1.23
2024-02-22T14:20:18.696Z,1.25
2024-02-22T14:22:48.297Z,1.27
2024-02-22T14:25:15.735Z,0.93
2024-02-22T14:27:42.894Z,1.50
2024-02-22T14:30:10.299Z,1.30
2024-02-22T14:32:37.557Z,1.30
2024-02-22T14:35:06.723Z,1.17
2024-02-22T14:37:33.991Z,1.50
2024-02-22T14:40:01.315Z,1.20
2024-02-22T14:42:29.599Z,1.50
2024-02-22T14:44:58.547Z,1.05
2024-02-22T14:47:25.944Z,1.40
2024-02-22T14:49:53.297Z,1.35
2024-02-22T14:52:20.892Z,1.52
2024-02-22T14:54:48.030Z,1.20
2024-02-22T14:57:15.268Z,1.40
2024-02-22T14:59:42.500Z,1.23
2024-02-22T15:02:09.793Z,1.50
2024-02-22T15:04:37.116Z,1.30
2024-02-22T15:07:06.502Z,1.27
2024-02-22T15:09:34.290Z,1.60
2024-02-22T15:12:02.925Z,1.40
2024-02-22T15:14:30.340Z,1.48
2024-02-22T15:16:57.583Z,1.58
2024-02-22T15:19:25.019Z,1.70
2024-02-22T15:21:52.288Z,1.20
2024-02-22T15:24:19.752Z,1.10
2024-02-22T15:26:47.242Z,2.67
2024-02-22T15:29:14.539Z,1.00
2024-02-22T15:31:41.780Z,1.48
2024-02-22T15:34:11.862Z,1.98
2024-02-22T15:36:40.460Z,1.35
2024-02-22T15:39:09.188Z,1.10
2024-02-22T15:41:38.108Z,1.40
2024-02-22T15:44:05.631Z,2.78
2024-02-22T15:46:32.846Z,2.10
2024-02-22T15:49:00.077Z,0.88
2024-02-22T15:51:27.232Z,0.43
2024-02-22T15:53:54.457Z,0.70
2024-02-22T15:56:26.895Z,0.82
2024-02-22T15:58:54.509Z,1.30
2024-02-22T16:01:23.042Z,1.40
2024-02-22T16:03:51.593Z,1.00
2024-02-22T16:06:19.054Z,1.15
2024-02-22T16:08:47.988Z,0.90
2024-02-22T16:13:42.359Z,1.20
2024-02-22T16:16:09.962Z,0.88
2024-02-22T16:18:39.392Z,0.63
2024-02-22T16:21:06.636Z,0.63
2024-02-22T16:23:35.465Z,0.68
2024-02-22T16:26:02.876Z,0.52
2024-02-22T16:28:30.280Z,0.52
2024-02-22T16:31:00.981Z,0.60
2024-02-22T16:33:28.642Z,0.63
2024-02-22T16:35:55.859Z,0.50
2024-02-22T16:38:23.100Z,0.65
2024-02-22T16:40:50.470Z,1.05
2024-02-22T16:43:18.226Z,0.32
2024-02-22T16:45:45.488Z,0.43
2024-02-22T16:48:12.831Z,0.40
2024-02-22T16:50:40.524Z,0.50
2024-02-22T16:53:07.860Z,0.35
2024-02-22T16:55:35.756Z,0.40
2024-02-22T16:58:05.787Z,0.68
2024-02-22T17:00:33.306Z,0.30
2024-02-22T17:03:00.591Z,0.30
2024-02-22T17:05:28.314Z,0.45
2024-02-22T17:07:55.545Z,0.30
2024-02-22T17:10:24.852Z,0.25
2024-02-22T17:12:53.361Z,0.70
2024-02-22T17:15:21.171Z,0.40
2024-02-22T17:17:49.536Z,0.40
2024-02-22T17:20:19.406Z,0.55
2024-02-22T17:22:47.802Z,0.70
2024-02-22T17:25:15.051Z,0.30
2024-02-22T17:27:42.293Z,0.10
2024-02-22T17:30:12.465Z,0.25
2024-02-22T17:32:39.804Z,0.15
2024-02-22T17:35:07.271Z,0.20
2024-02-22T17:37:34.455Z,0.10
2024-02-22T17:40:02.010Z,0.20
2024-02-22T17:42:29.270Z,0.80
2024-02-22T17:44:56.501Z,0.60
2024-02-22T17:47:24.929Z,0.80
2024-02-22T17:49:52.404Z,1.00
2024-02-22T17:52:19.703Z,0.60
2024-02-22T17:54:47.002Z,0.60
2024-02-22T17:57:15.234Z,0.40
2024-02-22T17:59:42.575Z,0.45
2024-02-22T18:02:09.799Z,0.50
2024-02-22T18:04:37.021Z,0.30
2024-02-22T18:07:04.460Z,0.32
2024-02-22T18:09:34.163Z,0.32
2024-02-22T18:12:01.987Z,0.50
2024-02-22T18:14:36.900Z,0.82
2024-02-22T18:17:04.307Z,0.45
2024-02-22T18:19:31.717Z,0.52
2024-02-22T18:21:58.914Z,0.50
2024-02-22T18:24:26.850Z,0.40
2024-02-22T18:27:04.767Z,0.43
2024-02-22T18:29:32.125Z,1.00
2024-02-22T18:32:30.911Z,0.40
2024-02-22T18:34:58.258Z,0.80
2024-02-22T18:37:26.038Z,0.65
2024-02-22T18:39:53.299Z,0.90
2024-02-22T18:42:20.446Z,2.65
2024-02-22T18:44:47.590Z,1.10
2024-02-22T18:47:14.856Z,0.95
2024-02-22T18:49:42.889Z,1.38
2024-02-22T18:52:10.229Z,1.45
2024-02-22T18:54:37.583Z,1.25
2024-02-22T18:57:04.937Z,1.20
2024-02-22T18:59:34.265Z,1.20
2024-02-22T19:02:01.577Z,1.05
2024-02-22T19:04:29.020Z,1.17
2024-02-22T19:06:57.321Z,0.98
2024-02-22T19:09:24.601Z,1.10
2024-02-22T19:11:52.769Z,1.20
2024-02-22T19:14:20.201Z,1.70
2024-02-22T19:16:47.531Z,1.50
2024-02-22T19:19:15.218Z,1.30
2024-02-22T19:21:46.307Z,0.73
2024-02-22T19:24:13.975Z,0.80
2024-02-22T19:26:41.294Z,0.95
2024-02-22T19:29:08.578Z,0.60
2024-02-22T19:31:36.217Z,0.80
2024-02-22T19:34:04.972Z,0.73
2024-02-22T19:36:41.307Z,0.90
2024-02-22T19:39:12.614Z,1.48
2024-02-22T19:41:44.109Z,1.20
2024-02-22T19:44:13.223Z,0.90
2024-02-22T19:46:40.745Z,0.35
2024-02-22T19:49:08.031Z,0.85
2024-02-22T19:51:35.313Z,0.80
2024-02-22T19:54:02.548Z,0.80
2024-02-22T19:56:29.777Z,0.80
2024-02-22T19:59:00.955Z,1.27
2024-02-22T20:01:30.380Z,0.43
2024-02-22T20:03:58.524Z,0.47
2024-02-22T20:06:26.206Z,0.50
2024-02-22T20:08:56.120Z,0.52
2024-02-22T20:11:24.429Z,0.30
2024-02-22T20:13:56.708Z,0.60
2024-02-22T20:16:27.343Z,0.73
2024-02-22T20:18:54.655Z,0.60
2024-02-22T20:21:21.901Z,0.70
2024-02-22T20:23:51.604Z,0.50
2024-02-22T20:28:50.847Z,0.60
2024-02-22T20:31:18.593Z,0.57
2024-02-22T20:33:45.894Z,0.32
2024-02-22T20:36:13.191Z,0.55
2024-02-22T20:38:43.486Z,0.80
2024-02-22T20:41:15.782Z,0.40
2024-02-22T20:43:43.442Z,0.30
2024-02-22T20:46:11.212Z,0.55
2024-02-22T20:48:39.291Z,0.55
2024-02-22T20:51:06.584Z,0.68
2024-02-22T20:53:36.588Z,0.60
2024-02-22T20:56:04.406Z,0.60
2024-02-22T20:58:31.736Z,0.40
2024-02-22T21:01:00.286Z,0.70
2024-02-22T21:03:28.956Z,0.60
2024-02-22T21:05:57.769Z,0.80
2024-02-22T21:08:25.537Z,0.38
2024-02-22T21:10:58.208Z,0.80
2024-02-22T21:13:25.455Z,0.32
2024-02-22T21:15:53.545Z,0.73
2024-02-22T21:18:21.129Z,0.40
2024-02-22T21:20:48.433Z,0.55
2024-02-22T21:23:15.740Z,0.35
2024-02-22T21:25:45.027Z,0.50
2024-02-22T21:28:14.138Z,0.40
2024-02-22T21:30:41.367Z,0.50
2024-02-22T21:33:08.610Z,0.73
2024-02-22T21:35:35.849Z,0.50
2024-02-22T21:38:03.918Z,0.50
2024-02-22T21:40:31.873Z,0.30
2024-02-22T21:42:59.034Z,0.28
2024-02-22T21:45:28.252Z,0.20
2024-02-22T21:50:22.610Z,0.20
2024-02-22T21:52:49.823Z,0.32
2024-02-22T21:55:17.031Z,0.25
2024-02-22T21:57:44.231Z,0.30
2024-02-22T22:00:11.763Z,0.22
2024-02-22T22:02:39.795Z,0.40
2024-02-22T22:05:11.743Z,0.30
2024-02-22T22:07:39.594Z,0.40
2024-02-22T22:10:06.995Z,0.20
2024-02-22T22:12:34.119Z,0.20
2024-02-22T22:15:02.758Z,0.20
2024-02-22T22:17:29.955Z,0.38
2024-02-22T22:19:57.176Z,0.52
2024-02-22T22:22:24.327Z,0.22
2024-02-22T22:24:51.632Z,0.43
2024-02-22T22:27:18.805Z,0.32
2024-02-22T22:29:45.972Z,0.40
2024-02-22T22:32:13.112Z,0.50
2024-02-22T22:34:41.692Z,0.63
2024-02-22T22:37:08.895Z,0.52
2024-02-22T22:39:36.079Z,0.40
2024-02-22T22:42:03.395Z,0.30
2024-02-22T22:44:30.734Z,0.25
2024-02-22T22:46:58.610Z,0.20
2024-02-22T22:49:25.936Z,0.55
2024-02-22T22:51:53.138Z,0.63
2024-02-22T22:54:20.330Z,0.30
2024-02-22T22:56:47.928Z,0.22
2024-02-22T22:59:15.115Z,0.43
2024-02-22T23:01:42.272Z,0.20
2024-02-22T23:04:09.531Z,0.52
2024-02-22T23:06:36.774Z,0.60
2024-02-22T23:09:04.763Z,0.55
2024-02-22T23:11:32.799Z,0.40
2024-02-22T23:14:00.122Z,0.52
2024-02-22T23:16:27.319Z,0.93
2024-02-22T23:18:54.958Z,0.52
2024-02-22T23:21:24.412Z,0.65
2024-02-22T23:23:51.583Z,0.55
2024-02-22T23:26:18.838Z,1.05
2024-02-22T23:28:46.137Z,0.70
2024-02-22T23:31:13.316Z,0.40
2024-02-22T23:33:40.487Z,1.02
2024-02-22T23:36:09.548Z,0.63
2024-02-22T23:38:36.824Z,1.33
2024-02-22T23:41:16.885Z,0.65
2024-02-22T23:43:51.550Z,0.70
2024-02-22T23:46:19.028Z,0.80
2024-02-22T23:48:46.228Z,0.95
2024-02-22T23:51:13.638Z,0.82
2024-02-22T23:53:41.007Z,0.70
2024-02-22T23:56:12.187Z,0.70
2024-02-22T23:58:39.635Z,0.85
